SHASTA DAM (USBR) (SHA)

Elevation: 1067' · SACRAMENTO R basin · Operator: US Bureau of Reclamation

Provisional data, subject to change.
Query executed Friday at 6:47:07   clock

Select a sensor type for a plot of data.
Note: Reservoir Flows are daily averages.

Earlier

Date RES ELE    STORAGE    RES CHG    TOC STO    ABV TOC    OUTFLOW    INFLOW    EVAP    FNF    RIV REL    PPT INC    RAIN    SPILL    DIS PWR   
 FEET   AF   AF   AF   AF   CFS   CFS   CFS   CFS   CFS   INCHES   INCHES   CFS   CFS  
07/03/2014 946.90 1826415 -8262 4552100 -2725685 6195 2244 214 2472 0 0.00 30.53 0 6195
07/04/2014 946.24 1815774 -10641 4552100 -2736326 6856 1728 237 2260 0 0.00 30.53 0 6856
07/05/2014 945.73 1807579 -8195 4552100 -2744521 6216 2320 236 2295 0 0.00 30.53 0 6216
07/06/2014 945.24 1799728 -7851 4552100 -2752372 6296 2555 217 2487 0 0.00 30.53 0 6296
07/07/2014 944.78 1792380 -7348 4552100 -2759720 6238 2787 254 2509 0 0.00 30.53 0 6238
07/08/2014 944.31 1784896 -7484 4552100 -2767204 6200 2647 220 2682 0 0.00 30.53 0 6200
07/09/2014 943.86 1777745 -7151 4552100 -2774355 6133 2748 220 2562 0 0.00 30.53 0 6133
07/10/2014 943.20 1767302 -10443 4552100 -2784798 7072 1961 154 2467 0 0.00 30.53 0 7072
07/11/2014 942.49 1756117 -11185 4552100 -2795983 6820 1385 204 2512 0 0.00 30.53 0 6820
07/12/2014 941.89 1746692 -9425 4552100 -- 6887 2274 139 2337 e 0 0.00 30.53 0 6887
07/13/2014 941.33 1737942 -8750 4552100 -2814158 7034 2830 207 2337 e 0 0.00 30.53 0 7034
07/14/2014 940.77 1729213 -8729 4552100 -2822887 7315 3098 184 2405 0 0.00 30.53 0 7315
07/15/2014 940.22 1720672 -8541 4552100 -2831428 6782 2668 192 2482 0 0.00 30.53 0 6782
07/16/2014 939.50 1709484 -11188 4552100 -2842616 7056 1574 159 2172 0 0.00 30.53 0 7056
07/17/2014 938.79 1698470 -11014 4552100 -2853630 7249 1846 150 2358 204 0.00 30.53 0 7045
07/18/2014 938.27 1690440 -8030 4552100 -2861660 6717 2827 158 2455 0 0.00 30.53 0 6717
07/19/2014 937.79 1683048 -7392 4552100 -2869052 6756 3187 158 2266 0 0.00 30.53 0 6756
07/20/2014 937.08 1672153 -10895 4552100 -2879947 6709 1418 202 2370 0 0.00 30.53 0 6709
07/21/2014 936.47 1662844 -9309 4552100 -2889256 7299 2763 157 2199 0 0.00 30.53 0 7299
07/22/2014 935.91 1654315 -8529 4552100 -2897785 6997 2791 94 2298 0 0.02 30.55 0 6997
07/23/2014 935.26 1644468 -9847 4552100 -2907632 7196 2365 133 2219 0 0.00 30.55 0 7196
07/24/2014 934.75 1636766 -7702 4552100 -2915334 6674 2950 159 2200 0 0.00 30.55 0 6674
07/25/2014 934.17 1628037 -8729 4552100 -2924063 6967 2742 176 2350 0 0.00 30.55 0 6967
07/26/2014 933.50 1618001 -10036 4552100 -2934099 7132 2270 198 2298 0 0.00 30.55 0 7132
07/27/2014 932.91 1609186 -8815 4552100 -2942914 6729 2482 197 2335 0 0.00 30.55 0 6729
07/28/2014 932.30 1600122 -9064 4552100 -2951978 7558 3176 188 2388 0 0.00 30.55 0 7558
07/29/2014 931.66 1590646 -9476 4552100 -2961454 6480 1885 182 2315 0 0.00 30.55 0 6480
07/30/2014 931.06 1581789 -8857 4552100 -2970311 6391 2099 173 2193 0 0.00 30.55 0 6391
07/31/2014 930.60 1575037 -6752 -- -- 6176 2979 207 2550 0 0.00 -- 0 6176
08/01/2014 -- -- -- -- -- -- -- -- -- -- -- -- -- --

Later | Latest

Warning! This data is preliminary and subject to revision.

Download Data Now Download Data Now | Show SHA Map | Plot SHA Data | 1 Month SHA Data | Real-Time SHA Data | SHA Info